Magnate — H9ZN — position and weather

sailwx.info

Track history (hours):
 
Tides and Currents Weather Stations Pressure Air Temp Water Temp Dewpoint Dewpoint Depression Visibility Wind Speed Wind Dir Waves Ship Positions

Magnate

Last reported at 2014-Jul-22 17:33 UTC. Time now 2014-Jul-23 14:01 UTC.
Position S 33°08' E 029°14'.

Length 140 m; draft 7 m.

Type: Cargo ship. MMSI: 357055000.

Date/timePositionNaut miles runAvg speedWind from/ knotsBaromVisibWave heightAir tempDewpointWater temp
2014-Jul-22 17:33S 33°08' E 029°14'127 8.3
2014-Jul-22 02:20S 34°01' E 026°55'432 9.8
2014-Jul-20 06:26S 34°11' E 018°14'9 9.8
2014-Jul-20 05:33S 34°02' E 018°13'6 0.2
2014-Jul-18 22:07S 33°57' E 018°10'4 6.3
2014-Jul-18 21:33S 33°60' E 018°13'2 1.6
2014-Jul-18 20:33S 33°58' E 018°11'4 1.7
2014-Jul-18 18:22S 33°56' E 018°08'3 1.6
2014-Jul-18 16:18S 33°54' E 018°05'1 1.5
2014-Jul-18 15:33S 33°53' E 018°04'1 1.4
2014-Jul-18 14:30S 33°52' E 018°02'1 1.2
2014-Jul-18 13:33S 33°51' E 018°01'2 1.6
2014-Jul-18 12:30S 33°51' E 018°03'6 6.3
2014-Jul-18 11:33S 33°50' E 018°10'3 2.1
2014-Jul-18 10:19S 33°48' E 018°13'2 1.7
2014-Jul-18 09:19S 33°48' E 018°11'2 1.8
2014-Jul-18 08:06S 33°47' E 018°08'1 1.9
2014-Jul-18 07:31S 33°47' E 018°07'2 1.9
2014-Jul-18 06:27S 33°47' E 018°04'11 4.7
2014-Jul-18 04:08S 33°53' E 018°15'1 1.8
2014-Jul-18 03:33S 33°52' E 018°14'2 1.8
2014-Jul-18 02:33S 33°51' E 018°12'2 1.7
2014-Jul-18 01:33S 33°50' E 018°11'2 1.5
2014-Jul-18 00:31S 33°49' E 018°09'2 1.4
2014-Jul-17 23:24S 33°48' E 018°08'1 1.4
2014-Jul-17 22:33S 33°48' E 018°07'1 1.3
2014-Jul-17 21:33S 33°47' E 018°06'1 1.2
2014-Jul-17 20:33S 33°46' E 018°04'1 1.1
2014-Jul-17 19:33S 33°46' E 018°03'1 1.2
2014-Jul-17 18:31S 33°45' E 018°02'3 3.4
2014-Jul-17 17:33S 33°46' E 018°05'6 6.3
2014-Jul-17 16:32S 33°48' E 018°13'2 1.1
2014-Jul-17 14:28S 33°48' E 018°11'2 1.6
2014-Jul-17 13:30S 33°49' E 018°09'2 1.6
2014-Jul-17 12:25S 33°49' E 018°07'2 1.7
2014-Jul-17 11:25S 33°49' E 018°05'2 1.7
2014-Jul-17 10:28S 33°48' E 018°03'2 2.5
2014-Jul-17 09:33S 33°47' E 018°05'3 2.9
2014-Jul-17 08:26S 33°46' E 018°09'3 3.0
2014-Jul-17 07:26S 33°46' E 018°13'7 5.4
2014-Jul-17 06:12S 33°52' E 018°17'710.6
2014-Jul-17 05:33S 33°46' E 018°12'1211.9
2014-Jul-17 04:33S 33°37' E 018°03'  
2014-Jul-13 05:23S 33°01' E 017°59'  
Track history (hours):
 
Tides and Currents Weather Stations Pressure Air Temp Water Temp Dewpoint Dewpoint Depression Visibility Wind Speed Wind Dir Waves Ship Positions

Magnate

Last reported at 2014-Jul-22 17:33 UTC. Time now 2014-Jul-23 14:01 UTC.
Position S 33°08' E 029°14'.

Length 140 m; draft 7 m.

Type: Cargo ship. MMSI: 357055000.

Date/timePositionNaut miles runAvg speedWind from/ knotsBaromVisibWave heightAir tempDewpointWater temp
2014-Jul-22 17:33S 33°08' E 029°14'127 8.3
2014-Jul-22 02:20S 34°01' E 026°55'432 9.8
2014-Jul-20 06:26S 34°11' E 018°14'9 9.8
2014-Jul-20 05:33S 34°02' E 018°13'6 0.2
2014-Jul-18 22:07S 33°57' E 018°10'4 6.3
2014-Jul-18 21:33S 33°60' E 018°13'2 1.6
2014-Jul-18 20:33S 33°58' E 018°11'4 1.7
2014-Jul-18 18:22S 33°56' E 018°08'3 1.6
2014-Jul-18 16:18S 33°54' E 018°05'1 1.5
2014-Jul-18 15:33S 33°53' E 018°04'1 1.4
2014-Jul-18 14:30S 33°52' E 018°02'1 1.2
2014-Jul-18 13:33S 33°51' E 018°01'2 1.6
2014-Jul-18 12:30S 33°51' E 018°03'6 6.3
2014-Jul-18 11:33S 33°50' E 018°10'3 2.1
2014-Jul-18 10:19S 33°48' E 018°13'2 1.7
2014-Jul-18 09:19S 33°48' E 018°11'2 1.8
2014-Jul-18 08:06S 33°47' E 018°08'1 1.9
2014-Jul-18 07:31S 33°47' E 018°07'2 1.9
2014-Jul-18 06:27S 33°47' E 018°04'11 4.7
2014-Jul-18 04:08S 33°53' E 018°15'1 1.8
2014-Jul-18 03:33S 33°52' E 018°14'2 1.8
2014-Jul-18 02:33S 33°51' E 018°12'2 1.7
2014-Jul-18 01:33S 33°50' E 018°11'2 1.5
2014-Jul-18 00:31S 33°49' E 018°09'2 1.4
2014-Jul-17 23:24S 33°48' E 018°08'1 1.4
2014-Jul-17 22:33S 33°48' E 018°07'1 1.3
2014-Jul-17 21:33S 33°47' E 018°06'1 1.2
2014-Jul-17 20:33S 33°46' E 018°04'1 1.1
2014-Jul-17 19:33S 33°46' E 018°03'1 1.2
2014-Jul-17 18:31S 33°45' E 018°02'3 3.4
2014-Jul-17 17:33S 33°46' E 018°05'6 6.3
2014-Jul-17 16:32S 33°48' E 018°13'2 1.1
2014-Jul-17 14:28S 33°48' E 018°11'2 1.6
2014-Jul-17 13:30S 33°49' E 018°09'2 1.6
2014-Jul-17 12:25S 33°49' E 018°07'2 1.7
2014-Jul-17 11:25S 33°49' E 018°05'2 1.7
2014-Jul-17 10:28S 33°48' E 018°03'2 2.5
2014-Jul-17 09:33S 33°47' E 018°05'3 2.9
2014-Jul-17 08:26S 33°46' E 018°09'3 3.0
2014-Jul-17 07:26S 33°46' E 018°13'7 5.4
2014-Jul-17 06:12S 33°52' E 018°17'710.6
2014-Jul-17 05:33S 33°46' E 018°12'1211.9
2014-Jul-17 04:33S 33°37' E 018°03'  
2014-Jul-13 05:23S 33°01' E 017°59'  

Dump ship's entire track history